createdAt,value
2018-10-21T00:01:52.563Z,65.06
2018-10-21T00:12:23.692Z,65.78
2018-10-21T00:17:16.402Z,66.33
2018-10-21T00:22:09.001Z,66.24
2018-10-21T00:27:01.638Z,66.16
2018-10-21T00:31:54.255Z,66.42
2018-10-21T00:36:46.863Z,66.45
2018-10-21T00:41:39.582Z,67.13
2018-10-21T00:46:32.270Z,67.00
2018-10-21T00:51:25.066Z,67.34
2018-10-21T00:56:18.557Z,67.15
2018-10-21T01:01:11.426Z,67.35
2018-10-21T01:06:04.204Z,67.44
2018-10-21T01:10:57.073Z,67.59
2018-10-21T01:15:49.692Z,67.58
2018-10-21T01:20:42.283Z,67.59
2018-10-21T01:25:34.921Z,68.48
2018-10-21T01:30:27.509Z,68.54
2018-10-21T01:35:20.161Z,68.45
2018-10-21T01:41:02.357Z,68.37
2018-10-21T01:45:55.486Z,69.19
2018-10-21T01:50:48.077Z,68.98
2018-10-21T01:55:40.724Z,69.46
2018-10-21T02:00:33.691Z,69.09
2018-10-21T02:05:26.583Z,68.79
2018-10-21T02:10:19.174Z,69.04
2018-10-21T02:15:12.529Z,68.99
2018-10-21T02:20:05.709Z,69.44
2018-10-21T02:24:58.338Z,68.92
2018-10-21T02:29:50.962Z,69.39
2018-10-21T02:34:43.530Z,69.64
2018-10-21T02:39:36.110Z,69.71
2018-10-21T02:44:28.680Z,69.52
2018-10-21T02:49:21.662Z,70.06
2018-10-21T02:54:14.283Z,69.76
2018-10-21T02:59:07.008Z,70.00
2018-10-21T03:03:59.652Z,70.11
2018-10-21T03:08:52.309Z,70.03
2018-10-21T03:13:44.931Z,69.98
2018-10-21T03:18:37.586Z,69.71
2018-10-21T03:23:30.227Z,69.92
2018-10-21T03:28:22.866Z,69.65
2018-10-21T03:33:15.740Z,69.67
2018-10-21T03:38:08.435Z,69.64
2018-10-21T03:43:01.086Z,69.77
2018-10-21T03:47:54.088Z,70.19
2018-10-21T03:52:46.848Z,69.88
2018-10-21T03:57:39.517Z,70.62
2018-10-21T04:02:32.114Z,70.28
2018-10-21T04:07:24.715Z,70.29
2018-10-21T04:12:17.289Z,70.71
2018-10-21T04:17:09.919Z,70.95
2018-10-21T04:22:02.596Z,70.53
2018-10-21T04:26:55.148Z,70.81
2018-10-21T04:31:47.779Z,70.83
2018-10-21T04:36:40.460Z,71.00
2018-10-21T04:41:33.067Z,70.87
2018-10-21T04:46:25.721Z,70.94
2018-10-21T04:51:18.329Z,70.76
2018-10-21T04:56:10.895Z,70.94
2018-10-21T05:01:03.678Z,71.27
2018-10-21T05:05:56.291Z,71.17
2018-10-21T05:10:48.897Z,71.61
2018-10-21T05:15:41.513Z,70.57
2018-10-21T05:20:34.148Z,70.58
2018-10-21T05:25:26.793Z,70.88
2018-10-21T05:30:19.392Z,70.93
2018-10-21T05:35:13.392Z,70.89
2018-10-21T05:40:08.240Z,71.09
2018-10-21T05:45:00.904Z,71.20
2018-10-21T05:49:53.522Z,71.10
2018-10-21T05:54:46.106Z,71.34
2018-10-21T05:59:38.710Z,71.41
2018-10-21T06:04:31.322Z,71.02
2018-10-21T06:09:24.002Z,71.17
2018-10-21T06:14:16.609Z,71.46
2018-10-21T06:19:12.889Z,71.47
2018-10-21T06:24:05.516Z,71.23
2018-10-21T06:28:58.227Z,71.77
2018-10-21T06:33:50.863Z,71.70
2018-10-21T06:38:43.597Z,72.10
2018-10-21T06:43:36.382Z,71.64
2018-10-21T06:48:29.050Z,71.43
2018-10-21T06:53:21.722Z,72.18
2018-10-21T06:58:14.368Z,71.84
2018-10-21T07:03:07.084Z,72.62
2018-10-21T07:07:59.768Z,72.55
2018-10-21T07:12:52.398Z,73.11
2018-10-21T07:17:46.536Z,73.01
2018-10-21T07:22:39.678Z,73.28
2018-10-21T07:27:32.260Z,73.56
2018-10-21T07:32:24.871Z,73.87
2018-10-21T07:37:17.618Z,74.06
2018-10-21T07:42:10.318Z,74.04
2018-10-21T07:47:02.985Z,74.58
2018-10-21T07:51:55.604Z,74.84
2018-10-21T07:56:48.354Z,74.69
2018-10-21T08:01:40.997Z,75.02
2018-10-21T08:06:51.213Z,75.56
2018-10-21T08:11:43.915Z,75.63
2018-10-21T08:16:36.681Z,75.51
2018-10-21T08:21:29.320Z,75.24
2018-10-21T08:26:21.926Z,75.46
2018-10-21T08:31:14.642Z,75.09
2018-10-21T08:36:11.650Z,74.42
2018-10-21T08:41:07.152Z,74.23
2018-10-21T08:46:03.463Z,73.42
2018-10-21T08:51:00.884Z,72.83
2018-10-21T08:55:55.629Z,72.35
2018-10-21T09:00:53.352Z,71.46
2018-10-21T09:05:53.691Z,71.37
2018-10-21T09:10:46.423Z,69.88
2018-10-21T09:15:39.192Z,68.86
2018-10-21T09:20:32.046Z,68.22
2018-10-21T09:25:24.896Z,67.68
2018-10-21T09:30:17.704Z,65.63
2018-10-21T09:35:14.228Z,64.47
2018-10-21T09:40:10.614Z,63.46
2018-10-21T09:45:03.900Z,62.05
2018-10-21T09:49:58.827Z,62.44
2018-10-21T09:54:51.711Z,60.31
2018-10-21T09:59:44.542Z,59.88
2018-10-21T10:04:37.446Z,58.74
2018-10-21T10:09:30.434Z,57.29
2018-10-21T10:14:23.338Z,57.53
2018-10-21T10:19:16.697Z,55.98
2018-10-21T10:24:09.628Z,55.04
2018-10-21T10:29:02.399Z,53.22
2018-10-21T10:33:55.467Z,52.69
2018-10-21T10:38:48.318Z,52.14
2018-10-21T10:43:41.245Z,50.37
2018-10-21T10:48:34.396Z,49.56
2018-10-21T10:53:27.798Z,48.74
2018-10-21T10:58:20.816Z,47.38
2018-10-21T11:03:13.887Z,47.57
2018-10-21T11:08:06.737Z,47.25
2018-10-21T11:12:59.812Z,45.12
2018-10-21T11:17:52.870Z,45.03
2018-10-21T11:22:45.837Z,45.34
2018-10-21T11:27:38.859Z,45.11
2018-10-21T11:32:31.923Z,44.51
2018-10-21T11:37:24.903Z,43.50
2018-10-21T11:42:17.728Z,43.42
2018-10-21T11:47:10.773Z,42.05
2018-10-21T11:52:03.797Z,42.02
2018-10-21T11:56:56.928Z,43.06
2018-10-21T12:01:49.900Z,42.16
2018-10-21T12:06:43.042Z,41.93
2018-10-21T12:11:35.845Z,40.45
2018-10-21T12:16:28.599Z,41.59
2018-10-21T12:21:21.467Z,40.94
2018-10-21T12:26:14.462Z,40.42
2018-10-21T12:31:07.425Z,39.92
2018-10-21T12:36:00.177Z,39.48
2018-10-21T12:40:53.098Z,39.45
2018-10-21T12:45:48.914Z,39.81
2018-10-21T12:50:42.788Z,37.91
2018-10-21T12:55:41.518Z,40.10
2018-10-21T13:00:34.410Z,38.28
2018-10-21T13:05:27.318Z,39.09
2018-10-21T13:10:20.183Z,38.38
2018-10-21T13:15:13.084Z,38.17
2018-10-21T13:20:06.118Z,36.81
2018-10-21T13:24:59.080Z,36.79
2018-10-21T13:29:51.982Z,36.66
2018-10-21T13:34:45.782Z,37.55
2018-10-21T13:39:38.666Z,36.64
2018-10-21T13:44:31.463Z,37.06
2018-10-21T13:49:24.276Z,36.71
2018-10-21T13:54:17.055Z,36.13
2018-10-21T13:59:09.952Z,36.39
2018-10-21T14:04:02.770Z,37.24
2018-10-21T14:08:55.590Z,36.89
2018-10-21T14:13:48.276Z,35.39
2018-10-21T14:18:40.892Z,36.19
2018-10-21T14:23:33.560Z,36.24
2018-10-21T14:28:26.185Z,37.15
2018-10-21T14:33:19.010Z,36.90
2018-10-21T14:38:11.505Z,36.72
2018-10-21T14:43:04.010Z,36.75
2018-10-21T14:47:56.798Z,37.94
2018-10-21T14:52:49.459Z,37.74
2018-10-21T14:57:41.987Z,37.99
2018-10-21T15:02:34.542Z,38.48
2018-10-21T15:07:27.226Z,38.95
2018-10-21T15:12:19.887Z,38.96
2018-10-21T15:17:12.548Z,39.07
2018-10-21T15:22:05.745Z,39.58
2018-10-21T15:26:58.573Z,39.87
2018-10-21T15:31:51.369Z,41.21
2018-10-21T15:36:44.069Z,41.45
2018-10-21T15:41:36.690Z,40.95
2018-10-21T15:46:29.252Z,41.70
2018-10-21T15:51:21.898Z,42.50
2018-10-21T15:56:14.787Z,43.10
2018-10-21T16:01:07.294Z,43.52
2018-10-21T16:06:00.606Z,44.01
2018-10-21T16:10:53.394Z,44.93
2018-10-21T16:15:46.176Z,45.74
2018-10-21T16:20:38.907Z,45.94
2018-10-21T16:25:31.703Z,46.57
2018-10-21T16:30:24.234Z,46.86
2018-10-21T16:35:16.949Z,47.19
2018-10-21T16:40:12.243Z,48.05
2018-10-21T16:45:05.522Z,48.54
2018-10-21T16:49:58.372Z,49.40
2018-10-21T16:54:51.165Z,49.52
2018-10-21T16:59:43.981Z,49.82
2018-10-21T17:04:36.511Z,49.61
2018-10-21T17:09:29.295Z,50.10
2018-10-21T17:14:21.858Z,51.12
2018-10-21T17:19:14.574Z,51.44
2018-10-21T17:24:07.199Z,51.43
2018-10-21T17:28:59.801Z,51.71
2018-10-21T17:33:52.463Z,51.93
2018-10-21T17:38:45.088Z,52.78
2018-10-21T17:43:38.985Z,52.22
2018-10-21T17:48:31.616Z,53.42
2018-10-21T17:53:24.455Z,53.59
2018-10-21T17:58:18.650Z,53.74
2018-10-21T18:03:13.882Z,53.52
2018-10-21T18:08:07.108Z,53.80
2018-10-21T18:13:00.433Z,54.71
2018-10-21T18:17:53.158Z,54.54
2018-10-21T18:22:45.946Z,55.09
2018-10-21T18:27:38.995Z,55.34
2018-10-21T18:32:31.583Z,55.41
2018-10-21T18:37:24.168Z,55.40
2018-10-21T18:42:16.774Z,55.53
2018-10-21T18:47:09.366Z,55.58
2018-10-21T18:52:02.068Z,55.91
2018-10-21T18:56:54.665Z,55.67
2018-10-21T19:01:47.338Z,55.06
2018-10-21T19:06:39.976Z,55.43
2018-10-21T19:11:32.640Z,54.92
2018-10-21T19:16:25.281Z,55.60
2018-10-21T19:21:17.839Z,54.84
2018-10-21T19:26:10.420Z,55.00
2018-10-21T19:31:03.018Z,54.54
2018-10-21T19:35:55.599Z,54.93
2018-10-21T19:40:48.375Z,55.19
2018-10-21T19:45:40.957Z,55.23
2018-10-21T19:50:33.555Z,56.07
2018-10-21T19:55:26.702Z,55.88
2018-10-21T20:00:19.440Z,55.41
2018-10-21T20:05:12.127Z,55.61
2018-10-21T20:10:07.236Z,56.20
2018-10-21T20:14:59.817Z,56.79
2018-10-21T20:19:52.409Z,56.62
2018-10-21T20:24:45.134Z,56.29
2018-10-21T20:29:37.800Z,56.31
2018-10-21T20:34:30.414Z,57.07
2018-10-21T20:39:22.934Z,56.50
2018-10-21T20:44:15.579Z,56.58
2018-10-21T20:49:08.277Z,56.80
2018-10-21T20:54:00.928Z,57.07
2018-10-21T20:58:53.522Z,56.99
2018-10-21T21:03:46.157Z,57.49
2018-10-21T21:08:39.175Z,56.58
2018-10-21T21:13:31.737Z,56.81
2018-10-21T21:18:24.366Z,56.97
2018-10-21T21:23:16.975Z,57.29
2018-10-21T21:28:09.720Z,57.44
2018-10-21T21:33:02.461Z,57.19
2018-10-21T21:37:55.126Z,57.25
2018-10-21T21:42:47.765Z,57.78
2018-10-21T21:47:40.357Z,58.13
2018-10-21T21:52:32.983Z,58.22
2018-10-21T21:57:25.681Z,57.79
2018-10-21T22:02:18.255Z,58.16
2018-10-21T22:07:10.913Z,58.55
2018-10-21T22:12:03.556Z,58.48
2018-10-21T22:16:56.173Z,58.49
2018-10-21T22:21:48.791Z,58.53
2018-10-21T22:26:41.353Z,58.36
2018-10-21T22:31:33.973Z,58.85
2018-10-21T22:36:26.733Z,58.84
2018-10-21T22:41:19.341Z,59.12
2018-10-21T22:46:12.146Z,58.79
2018-10-21T22:51:05.566Z,59.00
2018-10-21T22:55:58.093Z,59.46
2018-10-21T23:00:50.752Z,59.62
2018-10-21T23:05:43.365Z,59.41
2018-10-21T23:10:36.038Z,59.61
2018-10-21T23:15:28.666Z,59.79
2018-10-21T23:20:21.238Z,59.89
2018-10-21T23:25:13.739Z,59.68
2018-10-21T23:30:07.441Z,60.28
2018-10-21T23:35:00.106Z,60.75
2018-10-21T23:39:52.793Z,60.60
2018-10-21T23:44:45.529Z,60.56
2018-10-21T23:49:38.137Z,60.44
2018-10-21T23:54:31.607Z,60.76
2018-10-21T23:59:24.823Z,60.85
